sensor_id;sensor_type;location;lat;lon;timestamp;pressure;altitude;pressure_sealevel;temperature;humidity
60437;BME280;46289;51.992;4.498;2022-08-21T00:00:39;101822.19;;;16.04;100.00
60437;BME280;46289;51.992;4.498;2022-08-21T00:03:11;101824.84;;;16.02;100.00
60437;BME280;46289;51.992;4.498;2022-08-21T00:05:43;101829.22;;;15.99;100.00
60437;BME280;46289;51.992;4.498;2022-08-21T00:08:14;101825.66;;;15.95;100.00
60437;BME280;46289;51.992;4.498;2022-08-21T00:10:47;101832.69;;;15.92;100.00
60437;BME280;46289;51.992;4.498;2022-08-21T00:13:17;101827.38;;;15.89;100.00
60437;BME280;46289;51.992;4.498;2022-08-21T00:15:48;101827.38;;;15.86;100.00
60437;BME280;46289;51.992;4.498;2022-08-21T00:18:19;101825.59;;;15.85;100.00
60437;BME280;46289;51.992;4.498;2022-08-21T00:20:50;101819.41;;;15.81;100.00
60437;BME280;46289;51.992;4.498;2022-08-21T00:23:21;101826.41;;;15.78;100.00
60437;BME280;46289;51.992;4.498;2022-08-21T00:25:55;101826.41;;;15.78;100.00
60437;BME280;46289;51.992;4.498;2022-08-21T00:28:29;101815.81;;;15.73;100.00
60437;BME280;46289;51.992;4.498;2022-08-21T00:31:04;101815.78;;;15.68;100.00
60437;BME280;46289;51.992;4.498;2022-08-21T00:33:34;101818.38;;;15.65;100.00
60437;BME280;46289;51.992;4.498;2022-08-21T00:36:04;101817.50;;;15.65;100.00
60437;BME280;46289;51.992;4.498;2022-08-21T00:38:35;101815.72;;;15.61;100.00
60437;BME280;46289;51.992;4.498;2022-08-21T00:41:10;101814.84;;;15.57;100.00
60437;BME280;46289;51.992;4.498;2022-08-21T00:44:01;101814.78;;;15.54;100.00
60437;BME280;46289;51.992;4.498;2022-08-21T00:46:31;101813.88;;;15.54;100.00
60437;BME280;46289;51.992;4.498;2022-08-21T00:49:02;101816.50;;;15.52;100.00
60437;BME280;46289;51.992;4.498;2022-08-21T00:51:42;101809.44;;;15.50;100.00
60437;BME280;46289;51.992;4.498;2022-08-21T00:54:13;101809.44;;;15.48;100.00
60437;BME280;46289;51.992;4.498;2022-08-21T00:56:51;101798.81;;;15.45;100.00
60437;BME280;46289;51.992;4.498;2022-08-21T00:59:28;101802.34;;;15.43;100.00
60437;BME280;46289;51.992;4.498;2022-08-21T01:02:06;101804.06;;;15.39;100.00
60437;BME280;46289;51.992;4.498;2022-08-21T01:04:37;101804.91;;;15.36;100.00
60437;BME280;46289;51.992;4.498;2022-08-21T01:07:08;101802.22;;;15.30;100.00
60437;BME280;46289;51.992;4.498;2022-08-21T01:09:39;101803.97;;;15.30;100.00
60437;BME280;46289;51.992;4.498;2022-08-21T01:12:12;101798.66;;;15.27;100.00
60437;BME280;46289;51.992;4.498;2022-08-21T01:14:43;101797.78;;;15.28;100.00
60437;BME280;46289;51.992;4.498;2022-08-21T01:17:15;101806.56;;;15.25;100.00
60437;BME280;46289;51.992;4.498;2022-08-21T01:19:46;101806.56;;;15.22;100.00
60437;BME280;46289;51.992;4.498;2022-08-21T01:22:19;101810.06;;;15.20;100.00
60437;BME280;46289;51.992;4.498;2022-08-21T01:24:49;101806.50;;;15.16;100.00
60437;BME280;46289;51.992;4.498;2022-08-21T01:27:20;101806.47;;;15.13;100.00
60437;BME280;46289;51.992;4.498;2022-08-21T01:29:53;101802.88;;;15.08;100.00
60437;BME280;46289;51.992;4.498;2022-08-21T01:32:32;101799.34;;;15.08;100.00
60437;BME280;46289;51.992;4.498;2022-08-21T01:35:05;101804.59;;;15.03;100.00
60437;BME280;46289;51.992;4.498;2022-08-21T01:37:41;101800.16;;;15.00;100.00
60437;BME280;46289;51.992;4.498;2022-08-21T01:40:12;101801.03;;;14.98;100.00
60437;BME280;46289;51.992;4.498;2022-08-21T01:42:43;101797.47;;;14.96;100.00
60437;BME280;46289;51.992;4.498;2022-08-21T01:45:16;101798.28;;;14.90;100.00
60437;BME280;46289;51.992;4.498;2022-08-21T01:47:46;101793.84;;;14.86;100.00
60437;BME280;46289;51.992;4.498;2022-08-21T01:50:20;101792.94;;;14.84;100.00
60437;BME280;46289;51.992;4.498;2022-08-21T01:52:53;101791.13;;;14.80;100.00
60437;BME280;46289;51.992;4.498;2022-08-21T01:55:23;101785.88;;;14.82;100.00
60437;BME280;46289;51.992;4.498;2022-08-21T01:57:54;101794.75;;;14.88;100.00
60437;BME280;46289;51.992;4.498;2022-08-21T02:00:25;101788.69;;;14.97;100.00
60437;BME280;46289;51.992;4.498;2022-08-21T02:03:01;101779.03;;;15.00;100.00
60437;BME280;46289;51.992;4.498;2022-08-21T02:05:31;101779.03;;;15.00;100.00
60437;BME280;46289;51.992;4.498;2022-08-21T02:08:06;101771.97;;;14.98;100.00
60437;BME280;46289;51.992;4.498;2022-08-21T02:10:38;101775.50;;;14.98;100.00
60437;BME280;46289;51.992;4.498;2022-08-21T02:13:14;101770.22;;;15.00;100.00
60437;BME280;46289;51.992;4.498;2022-08-21T02:15:44;101778.22;;;15.08;100.00
60437;BME280;46289;51.992;4.498;2022-08-21T02:18:14;101767.66;;;15.08;100.00
60437;BME280;46289;51.992;4.498;2022-08-21T02:20:46;101764.13;;;15.07;100.00
60437;BME280;46289;51.992;4.498;2022-08-21T02:23:24;101769.38;;;15.04;100.00
60437;BME280;46289;51.992;4.498;2022-08-21T02:25:54;101771.97;;;14.99;100.00
60437;BME280;46289;51.992;4.498;2022-08-21T02:28:25;101770.22;;;14.98;100.00
60437;BME280;46289;51.992;4.498;2022-08-21T02:31:06;101775.47;;;14.97;100.00
60437;BME280;46289;51.992;4.498;2022-08-21T02:33:37;101775.44;;;14.94;100.00
60437;BME280;46289;51.992;4.498;2022-08-21T02:36:09;101767.50;;;14.94;100.00
60437;BME280;46289;51.992;4.498;2022-08-21T02:38:43;101772.78;;;14.92;100.00
60437;BME280;46289;51.992;4.498;2022-08-21T02:41:15;101766.63;;;14.92;100.00
60437;BME280;46289;51.992;4.498;2022-08-21T02:43:46;101767.44;;;14.88;100.00
60437;BME280;46289;51.992;4.498;2022-08-21T02:46:19;101764.81;;;14.88;100.00
60437;BME280;46289;51.992;4.498;2022-08-21T02:48:49;101763.06;;;14.88;100.00
60437;BME280;46289;51.992;4.498;2022-08-21T02:51:20;101763.06;;;14.90;100.00
60437;BME280;46289;51.992;4.498;2022-08-21T02:53:56;101768.34;;;14.90;100.00
60437;BME280;46289;51.992;4.498;2022-08-21T02:56:26;101761.31;;;14.89;100.00
60437;BME280;46289;51.992;4.498;2022-08-21T02:59:01;101756.84;;;14.85;100.00
60437;BME280;46289;51.992;4.498;2022-08-21T03:01:31;101766.56;;;14.87;100.00
60437;BME280;46289;51.992;4.498;2022-08-21T03:04:02;101763.94;;;14.89;100.00
60437;BME280;46289;51.992;4.498;2022-08-21T03:06:32;101756.00;;;14.86;100.00
60437;BME280;46289;51.992;4.498;2022-08-21T03:09:08;101754.25;;;14.88;100.00
60437;BME280;46289;51.992;4.498;2022-08-21T03:11:38;101757.78;;;14.88;100.00
60437;BME280;46289;51.992;4.498;2022-08-21T03:14:08;101756.03;;;14.89;100.00
60437;BME280;46289;51.992;4.498;2022-08-21T03:16:38;101745.44;;;14.87;100.00
60437;BME280;46289;51.992;4.498;2022-08-21T03:19:11;101745.44;;;14.87;100.00
60437;BME280;46289;51.992;4.498;2022-08-21T03:21:41;101738.34;;;14.83;100.00
60437;BME280;46289;51.992;4.498;2022-08-21T03:24:13;101746.25;;;14.82;100.00
60437;BME280;46289;51.992;4.498;2022-08-21T03:26:49;101741.88;;;14.82;100.00
60437;BME280;46289;51.992;4.498;2022-08-21T03:29:18;101742.72;;;14.80;100.00
60437;BME280;46289;51.992;4.498;2022-08-21T03:31:48;101740.94;;;14.79;100.00
60437;BME280;46289;51.992;4.498;2022-08-21T03:34:19;101736.53;;;14.76;100.00
60437;BME280;46289;51.992;4.498;2022-08-21T03:36:49;101737.44;;;14.80;100.00
60437;BME280;46289;51.992;4.498;2022-08-21T03:39:21;101733.94;;;14.81;100.00
60437;BME280;46289;51.992;4.498;2022-08-21T03:41:54;101734.81;;;14.81;100.00
60437;BME280;46289;51.992;4.498;2022-08-21T03:44:27;101730.34;;;14.76;100.00
60437;BME280;46289;51.992;4.498;2022-08-21T03:46:57;101732.13;;;14.77;100.00
60437;BME280;46289;51.992;4.498;2022-08-21T03:49:31;101735.63;;;14.76;100.00
60437;BME280;46289;51.992;4.498;2022-08-21T03:52:02;101735.63;;;14.76;100.00
60437;BME280;46289;51.992;4.498;2022-08-21T03:54:38;101734.72;;;14.72;100.00
60437;BME280;46289;51.992;4.498;2022-08-21T03:57:08;101734.72;;;14.72;100.00
60437;BME280;46289;51.992;4.498;2022-08-21T03:59:38;101734.78;;;14.78;100.00
60437;BME280;46289;51.992;4.498;2022-08-21T04:02:10;101734.72;;;14.73;100.00
60437;BME280;46289;51.992;4.498;2022-08-21T04:04:43;101733.88;;;14.76;100.00
60437;BME280;46289;51.992;4.498;2022-08-21T04:07:15;101733.00;;;14.76;100.00
60437;BME280;46289;51.992;4.498;2022-08-21T04:09:48;101738.31;;;14.80;100.00
60437;BME280;46289;51.992;4.498;2022-08-21T04:12:18;101742.69;;;14.77;100.00
60437;BME280;46289;51.992;4.498;2022-08-21T04:14:50;101740.91;;;14.76;100.00
60437;BME280;46289;51.992;4.498;2022-08-21T04:17:20;101738.25;;;14.72;100.00
60437;BME280;46289;51.992;4.498;2022-08-21T04:19:51;101741.78;;;14.75;100.00
60437;BME280;46289;51.992;4.498;2022-08-21T04:22:21;101745.28;;;14.73;100.00
60437;BME280;46289;51.992;4.498;2022-08-21T04:24:53;101744.38;;;14.71;100.00
60437;BME280;46289;51.992;4.498;2022-08-21T04:27:23;101744.44;;;14.75;100.00
60437;BME280;46289;51.992;4.498;2022-08-21T04:29:56;101746.19;;;14.74;100.00
60437;BME280;46289;51.992;4.498;2022-08-21T04:32:30;101752.41;;;14.81;100.00
60437;BME280;46289;51.992;4.498;2022-08-21T04:35:05;101746.25;;;14.82;100.00
60437;BME280;46289;51.992;4.498;2022-08-21T04:37:36;101750.63;;;14.78;100.00
60437;BME280;46289;51.992;4.498;2022-08-21T04:40:13;101760.34;;;14.81;100.00
60437;BME280;46289;51.992;4.498;2022-08-21T04:42:45;101762.97;;;14.81;100.00
60437;BME280;46289;51.992;4.498;2022-08-21T04:45:18;101760.34;;;14.82;100.00
60437;BME280;46289;51.992;4.498;2022-08-21T04:47:50;101763.00;;;14.84;100.00
60437;BME280;46289;51.992;4.498;2022-08-21T04:50:23;101757.72;;;14.82;100.00
60437;BME280;46289;51.992;4.498;2022-08-21T04:52:53;101762.97;;;14.81;100.00
60437;BME280;46289;51.992;4.498;2022-08-21T04:55:28;101770.00;;;14.80;100.00
60437;BME280;46289;51.992;4.498;2022-08-21T04:57:59;101768.25;;;14.81;100.00
60437;BME280;46289;51.992;4.498;2022-08-21T05:00:31;101770.91;;;14.82;100.00
60437;BME280;46289;51.992;4.498;2022-08-21T05:03:06;101776.19;;;14.82;100.00
60437;BME280;46289;51.992;4.498;2022-08-21T05:05:40;101770.94;;;14.84;100.00
60437;BME280;46289;51.992;4.498;2022-08-21T05:08:13;101778.88;;;14.85;100.00
60437;BME280;46289;51.992;4.498;2022-08-21T05:10:47;101778.00;;;14.85;100.00
60437;BME280;46289;51.992;4.498;2022-08-21T05:13:18;101773.59;;;14.87;100.00
60437;BME280;46289;51.992;4.498;2022-08-21T05:15:49;101765.72;;;14.90;100.00
60437;BME280;46289;51.992;4.498;2022-08-21T05:18:19;101771.91;;;14.92;100.00
60437;BME280;46289;51.992;4.498;2022-08-21T05:20:49;101760.50;;;14.96;100.00
60437;BME280;46289;51.992;4.498;2022-08-21T05:23:23;101764.94;;;15.00;100.00
60437;BME280;46289;51.992;4.498;2022-08-21T05:26:12;101774.66;;;15.04;100.00
60437;BME280;46289;51.992;4.498;2022-08-21T05:28:44;101772.94;;;15.09;100.00
60437;BME280;46289;51.992;4.498;2022-08-21T05:31:14;101771.25;;;15.14;100.00
60437;BME280;46289;51.992;4.498;2022-08-21T05:33:44;101769.53;;;15.21;100.00
60437;BME280;46289;51.992;4.498;2022-08-21T05:36:18;101771.38;;;15.28;100.00
60437;BME280;46289;51.992;4.498;2022-08-21T05:38:48;101774.09;;;15.38;100.00
60437;BME280;46289;51.992;4.498;2022-08-21T05:41:21;101778.59;;;15.49;100.00
60437;BME280;46289;51.992;4.498;2022-08-21T05:43:50;101774.31;;;15.60;100.00
60437;BME280;46289;51.992;4.498;2022-08-21T05:46:20;101771.72;;;15.70;100.00
60437;BME280;46289;51.992;4.498;2022-08-21T05:48:50;101768.31;;;15.88;100.00
60437;BME280;46289;51.992;4.498;2022-08-21T05:51:20;101767.50;;;16.03;100.00
60437;BME280;46289;51.992;4.498;2022-08-21T05:53:50;101771.13;;;16.19;100.00
60437;BME280;46289;51.992;4.498;2022-08-21T05:56:23;101769.44;;;16.34;100.00
60437;BME280;46289;51.992;4.498;2022-08-21T05:58:53;101772.16;;;16.54;100.00
60437;BME280;46289;51.992;4.498;2022-08-21T06:01:35;101769.59;;;16.76;100.00
60437;BME280;46289;51.992;4.498;2022-08-21T06:04:06;101775.78;;;16.81;100.00
60437;BME280;46289;51.992;4.498;2022-08-21T06:06:37;101776.69;;;16.98;100.00
60437;BME280;46289;51.992;4.498;2022-08-21T06:09:09;101774.06;;;17.12;100.00
60437;BME280;46289;51.992;4.498;2022-08-21T06:11:42;101779.38;;;17.22;100.00
60437;BME280;46289;51.992;4.498;2022-08-21T06:14:14;101772.31;;;17.40;100.00
60437;BME280;46289;51.992;4.498;2022-08-21T06:16:44;101777.63;;;17.58;100.00
60437;BME280;46289;51.992;4.498;2022-08-21T06:19:14;101768.75;;;17.74;100.00
60437;BME280;46289;51.992;4.498;2022-08-21T06:21:44;101766.09;;;17.85;100.00
60437;BME280;46289;51.992;4.498;2022-08-21T06:24:14;101767.84;;;18.01;100.00
60437;BME280;46289;51.992;4.498;2022-08-21T06:26:47;101768.69;;;18.08;100.00
60437;BME280;46289;51.992;4.498;2022-08-21T06:29:17;101761.59;;;18.17;100.00
60437;BME280;46289;51.992;4.498;2022-08-21T06:31:48;101759.81;;;18.21;100.00
60437;BME280;46289;51.992;4.498;2022-08-21T06:34:18;101763.28;;;18.37;100.00
60437;BME280;46289;51.992;4.498;2022-08-21T06:36:53;101757.94;;;18.47;100.00
60437;BME280;46289;51.992;4.498;2022-08-21T06:39:24;101769.38;;;18.69;100.00
60437;BME280;46289;51.992;4.498;2022-08-21T06:42:02;101760.50;;;18.72;100.00
60437;BME280;46289;51.992;4.498;2022-08-21T06:44:36;101754.25;;;18.74;100.00
60437;BME280;46289;51.992;4.498;2022-08-21T06:47:05;101761.19;;;18.98;100.00
60437;BME280;46289;51.992;4.498;2022-08-21T06:49:36;101758.31;;;19.25;100.00
60437;BME280;46289;51.992;4.498;2022-08-21T06:52:08;101758.31;;;19.28;100.00
60437;BME280;46289;51.992;4.498;2022-08-21T06:54:39;101760.78;;;19.53;100.00
60437;BME280;46289;51.992;4.498;2022-08-21T06:57:12;101759.78;;;19.65;100.00
60437;BME280;46289;51.992;4.498;2022-08-21T06:59:44;101761.34;;;19.84;100.00
60437;BME280;46289;51.992;4.498;2022-08-21T07:02:14;101759.41;;;19.98;100.00
60437;BME280;46289;51.992;4.498;2022-08-21T07:04:44;101765.66;;;19.96;100.00
60437;BME280;46289;51.992;4.498;2022-08-21T07:07:14;101765.78;;;19.83;100.00
60437;BME280;46289;51.992;4.498;2022-08-21T07:09:43;101757.75;;;19.89;100.00
60437;BME280;46289;51.992;4.498;2022-08-21T07:12:16;101770.00;;;20.04;100.00
60437;BME280;46289;51.992;4.498;2022-08-21T07:14:46;101759.19;;;20.19;100.00
60437;BME280;46289;51.992;4.498;2022-08-21T07:17:16;101766.97;;;20.36;100.00
60437;BME280;46289;51.992;4.498;2022-08-21T07:19:47;101761.47;;;20.51;100.00
60437;BME280;46289;51.992;4.498;2022-08-21T07:22:19;101764.88;;;20.63;100.00
60437;BME280;46289;51.992;4.498;2022-08-21T07:24:49;101769.03;;;20.82;100.00
60437;BME280;46289;51.992;4.498;2022-08-21T07:27:22;101768.91;;;20.89;100.00
60437;BME280;46289;51.992;4.498;2022-08-21T07:29:52;101772.59;;;20.81;100.00
60437;BME280;46289;51.992;4.498;2022-08-21T07:32:25;101766.19;;;20.94;100.00
60437;BME280;46289;51.992;4.498;2022-08-21T07:34:59;101755.13;;;21.18;100.00
60437;BME280;46289;51.992;4.498;2022-08-21T07:37:37;101758.03;;;21.60;100.00
60437;BME280;46289;51.992;4.498;2022-08-21T07:40:10;101756.09;;;21.68;100.00
60437;BME280;46289;51.992;4.498;2022-08-21T07:42:55;101756.94;;;21.70;100.00
60437;BME280;46289;51.992;4.498;2022-08-21T07:45:45;101757.25;;;21.53;100.00
60437;BME280;46289;51.992;4.498;2022-08-21T07:48:21;101752.59;;;21.65;100.00
60437;BME280;46289;51.992;4.498;2022-08-21T07:51:21;101756.00;;;21.74;100.00
60437;BME280;46289;51.992;4.498;2022-08-21T07:54:50;101752.19;;;22.32;100.00
60437;BME280;46289;51.992;4.498;2022-08-21T07:57:32;101754.66;;;22.41;100.00
60437;BME280;46289;51.992;4.498;2022-08-21T08:03:16;101767.59;;;22.61;100.00
60437;BME280;46289;51.992;4.498;2022-08-21T08:09:06;101766.09;;;22.88;100.00
60437;BME280;46289;51.992;4.498;2022-08-21T08:14:47;101759.81;;;22.50;100.00
60437;BME280;46289;51.992;4.498;2022-08-21T08:17:23;101766.38;;;22.34;100.00
60437;BME280;46289;51.992;4.498;2022-08-21T08:20:29;101770.88;;;22.32;100.00
60437;BME280;46289;51.992;4.498;2022-08-21T08:23:39;101755.41;;;22.05;100.00
60437;BME280;46289;51.992;4.498;2022-08-21T08:26:10;101754.56;;;22.03;100.00
60437;BME280;46289;51.992;4.498;2022-08-21T08:28:44;101750.25;;;21.94;100.00
60437;BME280;46289;51.992;4.498;2022-08-21T08:31:20;101744.34;;;22.23;100.00
60437;BME280;46289;51.992;4.498;2022-08-21T08:33:52;101749.56;;;22.29;100.00
60437;BME280;46289;51.992;4.498;2022-08-21T08:36:32;101754.59;;;22.44;100.00
60437;BME280;46289;51.992;4.498;2022-08-21T08:39:08;101746.72;;;22.80;100.00
60437;BME280;46289;51.992;4.498;2022-08-21T08:42:02;101748.03;;;23.35;100.00
60437;BME280;46289;51.992;4.498;2022-08-21T08:45:08;101745.59;;;23.61;100.00
60437;BME280;46289;51.992;4.498;2022-08-21T08:48:06;101743.84;;;23.60;100.00
60437;BME280;46289;51.992;4.498;2022-08-21T08:51:39;101742.28;;;23.14;100.00
60437;BME280;46289;51.992;4.498;2022-08-21T08:54:15;101730.38;;;23.63;100.00
60437;BME280;46289;51.992;4.498;2022-08-21T08:56:49;101735.13;;;23.85;100.00
60437;BME280;46289;51.992;4.498;2022-08-21T08:59:27;101732.41;;;24.17;100.00
60437;BME280;46289;51.992;4.498;2022-08-21T09:02:05;101728.19;;;24.39;100.00
60437;BME280;46289;51.992;4.498;2022-08-21T09:04:37;101734.00;;;24.83;99.45
60437;BME280;46289;51.992;4.498;2022-08-21T09:07:18;101736.56;;;24.29;100.00
60437;BME280;46289;51.992;4.498;2022-08-21T09:10:00;101736.72;;;24.54;97.58
60437;BME280;46289;51.992;4.498;2022-08-21T09:12:39;101745.22;;;24.68;96.93
60437;BME280;46289;51.992;4.498;2022-08-21T09:15:21;101734.66;;;24.62;95.29
60437;BME280;46289;51.992;4.498;2022-08-21T09:18:08;101748.41;;;24.51;97.28
60437;BME280;46289;51.992;4.498;2022-08-21T09:20:50;101741.00;;;25.15;97.47
60437;BME280;46289;51.992;4.498;2022-08-21T09:23:46;101737.94;;;24.99;91.01
60437;BME280;46289;51.992;4.498;2022-08-21T09:26:25;101736.59;;;24.57;94.37
60437;BME280;46289;51.992;4.498;2022-08-21T09:28:57;101745.31;;;25.21;91.14
60437;BME280;46289;51.992;4.498;2022-08-21T09:31:36;101745.75;;;25.07;90.80
60437;BME280;46289;51.992;4.498;2022-08-21T09:34:08;101748.22;;;25.13;90.50
60437;BME280;46289;51.992;4.498;2022-08-21T09:36:44;101747.50;;;25.87;87.77
60437;BME280;46289;51.992;4.498;2022-08-21T09:39:26;101750.66;;;24.65;95.86
60437;BME280;46289;51.992;4.498;2022-08-21T09:42:08;101751.25;;;24.74;96.20
60437;BME280;46289;51.992;4.498;2022-08-21T09:44:41;101749.97;;;24.58;94.79
60437;BME280;46289;51.992;4.498;2022-08-21T09:47:12;101751.63;;;24.92;93.14
60437;BME280;46289;51.992;4.498;2022-08-21T09:49:43;101744.16;;;25.54;88.10
60437;BME280;46289;51.992;4.498;2022-08-21T09:52:17;101743.34;;;24.70;86.70
60437;BME280;46289;51.992;4.498;2022-08-21T09:54:56;101759.19;;;24.17;95.15
60437;BME280;46289;51.992;4.498;2022-08-21T09:57:31;101755.56;;;23.89;100.00
60437;BME280;46289;51.992;4.498;2022-08-21T10:00:25;101758.19;;;23.58;100.00
60437;BME280;46289;51.992;4.498;2022-08-21T10:03:15;101751.69;;;23.99;100.00
60437;BME280;46289;51.992;4.498;2022-08-21T10:05:56;101747.31;;;24.27;100.00
60437;BME280;46289;51.992;4.498;2022-08-21T10:08:37;101742.00;;;23.62;98.66
60437;BME280;46289;51.992;4.498;2022-08-21T10:11:13;101746.38;;;23.97;100.00
60437;BME280;46289;51.992;4.498;2022-08-21T10:14:07;101740.69;;;24.08;98.99
60437;BME280;46289;51.992;4.498;2022-08-21T10:16:52;101734.50;;;24.96;93.67
60437;BME280;46289;51.992;4.498;2022-08-21T10:19:34;101735.50;;;25.20;88.30
60437;BME280;46289;51.992;4.498;2022-08-21T10:22:21;101737.75;;;25.58;84.95
60437;BME280;46289;51.992;4.498;2022-08-21T10:25:09;101737.03;;;25.53;85.90
60437;BME280;46289;51.992;4.498;2022-08-21T10:27:52;101733.78;;;25.95;82.70
60437;BME280;46289;51.992;4.498;2022-08-21T10:30:45;101741.63;;;25.50;81.59
60437;BME280;46289;51.992;4.498;2022-08-21T10:33:29;101737.75;;;25.58;82.23
60437;BME280;46289;51.992;4.498;2022-08-21T10:36:12;101731.44;;;25.59;82.01
60437;BME280;46289;51.992;4.498;2022-08-21T10:38:54;101732.53;;;25.01;81.75
60437;BME280;46289;51.992;4.498;2022-08-21T10:44:49;101726.78;;;25.66;78.07
60437;BME280;46289;51.992;4.498;2022-08-21T10:47:30;101730.84;;;25.78;79.87
60437;BME280;46289;51.992;4.498;2022-08-21T10:50:12;101726.38;;;26.25;78.74
60437;BME280;46289;51.992;4.498;2022-08-21T10:53:03;101730.75;;;25.28;77.33
60437;BME280;46289;51.992;4.498;2022-08-21T10:55:39;101730.75;;;25.28;81.46
60437;BME280;46289;51.992;4.498;2022-08-21T10:58:21;101729.53;;;25.63;78.74
60437;BME280;46289;51.992;4.498;2022-08-21T11:01:07;101743.66;;;25.94;76.35
60437;BME280;46289;51.992;4.498;2022-08-21T11:03:42;101733.63;;;25.74;78.52
60437;BME280;46289;51.992;4.498;2022-08-21T11:06:17;101739.56;;;24.77;80.96
60437;BME280;46289;51.992;4.498;2022-08-21T11:08:55;101743.09;;;25.33;79.42
60437;BME280;46289;51.992;4.498;2022-08-21T11:11:39;101745.03;;;25.55;77.12
60437;BME280;46289;51.992;4.498;2022-08-21T11:14:40;101738.47;;;25.63;79.55
60437;BME280;46289;51.992;4.498;2022-08-21T11:17:24;101743.56;;;25.72;76.94
60437;BME280;46289;51.992;4.498;2022-08-21T11:20:10;101738.22;;;26.19;74.41
60437;BME280;46289;51.992;4.498;2022-08-21T11:22:47;101740.31;;;26.11;72.62
60437;BME280;46289;51.992;4.498;2022-08-21T11:25:42;101746.47;;;25.91;70.67
60437;BME280;46289;51.992;4.498;2022-08-21T11:28:17;101748.31;;;26.37;72.09
60437;BME280;46289;51.992;4.498;2022-08-21T11:31:06;101747.97;;;26.47;71.40
60437;BME280;46289;51.992;4.498;2022-08-21T11:33:52;101755.13;;;25.99;72.52
60437;BME280;46289;51.992;4.498;2022-08-21T11:36:38;101757.44;;;25.32;73.25
60437;BME280;46289;51.992;4.498;2022-08-21T11:39:16;101753.53;;;24.59;75.69
60437;BME280;46289;51.992;4.498;2022-08-21T11:41:57;101757.91;;;25.19;77.39
60437;BME280;46289;51.992;4.498;2022-08-21T11:44:40;101758.13;;;25.65;74.27
60437;BME280;46289;51.992;4.498;2022-08-21T11:47:15;101755.72;;;25.83;71.61
60437;BME280;46289;51.992;4.498;2022-08-21T11:50:03;101754.75;;;25.85;69.63
60437;BME280;46289;51.992;4.498;2022-08-21T11:53:09;101759.00;;;25.66;67.54
60437;BME280;46289;51.992;4.498;2022-08-21T11:55:43;101761.22;;;26.03;65.56
60437;BME280;46289;51.992;4.498;2022-08-21T11:58:19;101743.66;;;25.94;67.17
60437;BME280;46289;51.992;4.498;2022-08-21T12:00:53;101753.16;;;25.80;64.19
60437;BME280;46289;51.992;4.498;2022-08-21T12:03:33;101741.63;;;25.50;65.91
60437;BME280;46289;51.992;4.498;2022-08-21T12:06:14;101749.53;;;26.04;65.26
60437;BME280;46289;51.992;4.498;2022-08-21T12:08:58;101754.25;;;26.22;63.60
60437;BME280;46289;51.992;4.498;2022-08-21T12:11:47;101757.03;;;25.96;64.68
60437;BME280;46289;51.992;4.498;2022-08-21T12:14:18;101746.50;;;25.90;65.52
60437;BME280;46289;51.992;4.498;2022-08-21T12:16:49;101750.91;;;26.16;65.90
60437;BME280;46289;51.992;4.498;2022-08-21T12:19:30;101764.84;;;25.79;65.61
60437;BME280;46289;51.992;4.498;2022-08-21T12:22:13;101758.31;;;25.59;64.84
60437;BME280;46289;51.992;4.498;2022-08-21T12:24:49;101761.22;;;26.28;63.89
60437;BME280;46289;51.992;4.498;2022-08-21T12:27:26;101759.97;;;25.63;65.02
60437;BME280;46289;51.992;4.498;2022-08-21T12:30:05;101761.44;;;25.98;65.44
60437;BME280;46289;51.992;4.498;2022-08-21T12:32:45;101765.75;;;25.78;66.00
60437;BME280;46289;51.992;4.498;2022-08-21T12:35:18;101766.75;;;26.00;63.76
60437;BME280;46289;51.992;4.498;2022-08-21T12:37:58;101767.13;;;25.64;64.39
60437;BME280;46289;51.992;4.498;2022-08-21T12:40:39;101767.56;;;26.25;64.21
60437;BME280;46289;51.992;4.498;2022-08-21T12:43:14;101762.34;;;26.46;61.64
60437;BME280;46289;51.992;4.498;2022-08-21T12:45:48;101773.69;;;26.05;64.93
60437;BME280;46289;51.992;4.498;2022-08-21T12:48:26;101770.22;;;25.79;67.59
60437;BME280;46289;51.992;4.498;2022-08-21T12:51:10;101766.53;;;25.81;65.94
60437;BME280;46289;51.992;4.498;2022-08-21T12:53:48;101778.75;;;25.37;67.80
60437;BME280;46289;51.992;4.498;2022-08-21T12:56:20;101776.75;;;25.17;68.34
60437;BME280;46289;51.992;4.498;2022-08-21T12:58:53;101777.66;;;24.88;69.61
60437;BME280;46289;51.992;4.498;2022-08-21T13:01:28;101779.94;;;25.28;68.88
60437;BME280;46289;51.992;4.498;2022-08-21T13:04:11;101770.59;;;25.14;68.32
60437;BME280;46289;51.992;4.498;2022-08-21T13:06:44;101776.09;;;26.13;66.15
60437;BME280;46289;51.992;4.498;2022-08-21T13:09:22;101770.81;;;25.60;66.62
60437;BME280;46289;51.992;4.498;2022-08-21T13:11:59;101769.47;;;25.47;66.01
60437;BME280;46289;51.992;4.498;2022-08-21T13:14:36;101768.78;;;25.68;66.41
60437;BME280;46289;51.992;4.498;2022-08-21T13:17:12;101769.06;;;26.09;65.92
60437;BME280;46289;51.992;4.498;2022-08-21T13:19:56;101772.88;;;26.03;65.42
60437;BME280;46289;51.992;4.498;2022-08-21T13:22:30;101774.44;;;26.09;64.02
60437;BME280;46289;51.992;4.498;2022-08-21T13:25:10;101774.16;;;25.68;65.63
60437;BME280;46289;51.992;4.498;2022-08-21T13:27:45;101774.03;;;25.71;62.66
60437;BME280;46289;51.992;4.498;2022-08-21T13:30:39;101769.28;;;26.03;62.79
60437;BME280;46289;51.992;4.498;2022-08-21T13:33:14;101776.38;;;26.77;60.95
60437;BME280;46289;51.992;4.498;2022-08-21T13:35:48;101770.88;;;26.80;60.95
60437;BME280;46289;51.992;4.498;2022-08-21T13:38:20;101781.72;;;26.30;63.67
60437;BME280;46289;51.992;4.498;2022-08-21T13:40:58;101775.41;;;26.56;62.81